Time;durP1;ratioP1;P1;durP2;ratioP2;P2;SDS_P1;SDS_P2;PMS_P1;PMS_P2;Temp;Humidity;BMP_temperature;BMP_pressure;BME280_temperature;BME280_humidity;BME280_pressure;Samples;Min_cycle;Max_cycle;Signal;HPM_P1;HPM_P2
2023/09/20 00:00:32;;;;;;;4.15;1.20;;;16.70;99.90;;;;;;5033131;28;20274;-88
2023/09/20 00:02:58;;;;;;;4.05;1.20;;;16.70;99.90;;;;;;5032645;28;20186;-87
2023/09/20 00:05:24;;;;;;;5.57;1.60;;;16.80;99.90;;;;;;5032997;28;20174;-87
2023/09/20 00:07:56;;;;;;;6.88;1.52;;;16.70;99.90;;;;;;5032713;28;20170;-89
2023/09/20 00:10:26;;;;;;;4.82;1.45;;;16.70;99.90;;;;;;5033079;28;20182;-89
2023/09/20 00:12:52;;;;;;;2.15;1.17;;;16.70;99.90;;;;;;5032591;28;20621;-88
2023/09/20 00:15:18;;;;;;;5.03;1.30;;;16.80;99.90;;;;;;5032109;28;20194;-88
2023/09/20 00:17:44;;;;;;;3.88;1.40;;;16.80;99.90;;;;;;5031853;28;20213;-88
2023/09/20 00:20:13;;;;;;;5.40;1.30;;;16.70;99.90;;;;;;5032894;28;20186;-87
2023/09/20 00:22:45;;;;;;;3.42;1.33;;;16.70;99.90;;;;;;5032859;28;20179;-91
2023/09/20 00:25:13;;;;;;;3.30;1.13;;;16.80;99.90;;;;;;5034347;28;20177;-91
2023/09/20 00:27:40;;;;;;;4.53;1.27;;;16.70;99.90;;;;;;5032881;28;20632;-87
2023/09/20 00:30:10;;;;;;;2.22;1.08;;;16.80;99.90;;;;;;5032876;28;20583;-89
2023/09/20 00:32:39;;;;;;;3.50;1.30;;;16.70;99.90;;;;;;5033871;28;20178;-88
2023/09/20 00:35:11;;;;;;;6.00;1.20;;;16.70;99.90;;;;;;5032229;28;20179;-87
2023/09/20 00:37:40;;;;;;;5.03;1.40;;;16.70;99.90;;;;;;5029051;28;20203;-88
2023/09/20 00:40:15;;;;;;;3.60;1.20;;;16.70;99.90;;;;;;5013114;28;20248;-87
2023/09/20 00:42:46;;;;;;;3.22;1.27;;;16.60;99.90;;;;;;5012927;28;20183;-88
2023/09/20 00:45:15;;;;;;;5.63;1.40;;;16.60;99.90;;;;;;5014254;28;20606;-89
2023/09/20 00:47:48;;;;;;;6.43;1.67;;;16.60;99.90;;;;;;5014162;28;20175;-88
2023/09/20 00:50:15;;;;;;;5.20;1.42;;;16.50;99.90;;;;;;5014178;28;20179;-89
2023/09/20 00:52:54;;;;;;;6.18;1.27;;;16.50;99.90;;;;;;5013763;28;20175;-88
2023/09/20 00:55:24;;;;;;;2.85;1.20;;;16.50;99.90;;;;;;5455222;22;20238;-91
2023/09/20 00:57:53;;;;;;;3.92;1.40;;;16.50;99.90;;;;;;5032404;28;20241;-88
2023/09/20 01:00:27;;;;;;;2.90;1.00;;;16.50;99.90;;;;;;5032674;28;20174;-89
2023/09/20 01:02:54;;;;;;;3.90;1.20;;;16.60;99.90;;;;;;5032940;28;20209;-90
2023/09/20 01:05:21;;;;;;;2.25;1.08;;;16.60;99.90;;;;;;5034160;28;20228;-87
2023/09/20 01:07:52;;;;;;;6.57;1.15;;;16.50;99.90;;;;;;5032141;28;20174;-88
2023/09/20 01:10:27;;;;;;;3.78;1.20;;;16.50;99.90;;;;;;5032536;28;20298;-88
2023/09/20 01:12:54;;;;;;;5.93;1.30;;;16.50;99.90;;;;;;5032688;28;20201;-89
2023/09/20 01:15:21;;;;;;;5.97;1.55;;;16.50;99.90;;;;;;5032600;28;20175;-89
2023/09/20 01:17:49;;;;;;;3.35;1.30;;;16.50;99.90;;;;;;5032373;28;20304;-88
2023/09/20 01:20:19;;;;;;;3.47;1.20;;;16.40;99.90;;;;;;5032531;28;20677;-88
2023/09/20 01:22:50;;;;;;;6.45;1.20;;;16.40;99.90;;;;;;5033582;28;20166;-89
2023/09/20 01:25:35;;;;;;;3.92;1.50;;;16.30;99.90;;;;;;5032052;28;20270;-88
2023/09/20 01:28:04;;;;;;;4.18;1.27;;;16.30;99.90;;;;;;5033506;28;20613;-89
2023/09/20 01:30:32;;;;;;;5.50;1.50;;;16.30;99.90;;;;;;5033654;28;20170;-88
2023/09/20 01:33:00;;;;;;;5.05;1.35;;;16.20;99.90;;;;;;5032193;28;20189;-90
2023/09/20 01:35:27;;;;;;;4.63;1.35;;;16.30;99.90;;;;;;5032421;28;20179;-89
2023/09/20 01:37:53;;;;;;;3.53;0.93;;;16.20;99.90;;;;;;5031728;28;20218;-89
2023/09/20 01:40:20;;;;;;;3.88;1.50;;;16.30;99.90;;;;;;5033674;28;20171;-90
2023/09/20 01:42:46;;;;;;;2.33;1.23;;;16.20;99.90;;;;;;5033666;28;20178;-88
2023/09/20 01:45:16;;;;;;;3.90;0.95;;;16.20;99.90;;;;;;5032191;28;20268;-87
2023/09/20 01:47:44;;;;;;;2.75;1.10;;;16.20;99.90;;;;;;5034537;28;20194;-89
2023/09/20 01:50:11;;;;;;;5.22;1.40;;;16.20;99.90;;;;;;5035843;28;20185;-86
2023/09/20 01:52:38;;;;;;;3.53;1.58;;;16.20;99.90;;;;;;5035573;28;20178;-89
2023/09/20 01:55:08;;;;;;;4.32;1.55;;;16.30;99.90;;;;;;5035673;28;20226;-88
2023/09/20 01:57:34;;;;;;;3.63;1.23;;;16.30;99.90;;;;;;5035655;28;20241;-91
2023/09/20 01:59:59;;;;;;;2.17;1.08;;;16.20;99.90;;;;;;5035526;28;20674;-90
2023/09/20 02:02:26;;;;;;;4.88;1.60;;;16.30;99.90;;;;;;5035897;28;20178;-89
2023/09/20 02:04:51;;;;;;;5.20;1.27;;;16.30;99.90;;;;;;5035642;28;20183;-89
2023/09/20 02:07:17;;;;;;;6.45;1.80;;;16.30;99.90;;;;;;5035281;28;20237;-91
2023/09/20 02:09:44;;;;;;;2.88;1.30;;;16.30;99.90;;;;;;5035663;28;20189;-88
2023/09/20 02:12:10;;;;;;;3.35;1.20;;;16.40;99.90;;;;;;5035513;28;20265;-90
2023/09/20 02:14:36;;;;;;;4.97;1.60;;;16.30;99.90;;;;;;5035329;28;20647;-89
2023/09/20 02:17:02;;;;;;;3.13;1.25;;;16.30;99.90;;;;;;5035500;28;20167;-90
2023/09/20 02:19:28;;;;;;;2.92;1.15;;;16.30;99.90;;;;;;5035296;28;20228;-88
2023/09/20 02:21:54;;;;;;;2.63;1.10;;;16.30;99.90;;;;;;5035201;28;20269;-89
2023/09/20 02:24:22;;;;;;;3.72;1.13;;;16.30;99.90;;;;;;5035410;28;20182;-88
2023/09/20 02:26:48;;;;;;;4.22;1.40;;;16.20;99.90;;;;;;5035021;28;20174;-90
2023/09/20 02:29:14;;;;;;;2.92;1.30;;;16.30;99.90;;;;;;5035071;28;20181;-89
2023/09/20 02:31:40;;;;;;;2.33;1.10;;;16.20;99.90;;;;;;5035031;28;20179;-90
2023/09/20 02:34:05;;;;;;;2.95;1.35;;;16.20;99.90;;;;;;5034944;28;20205;-87
2023/09/20 02:36:31;;;;;;;4.63;1.10;;;16.20;99.90;;;;;;5035950;28;20233;-87
2023/09/20 02:38:59;;;;;;;3.25;1.17;;;16.20;99.90;;;;;;5036154;28;20205;-89
2023/09/20 02:41:24;;;;;;;6.63;1.40;;;16.10;99.90;;;;;;5035093;28;20174;-90
2023/09/20 02:43:52;;;;;;;3.95;1.60;;;16.10;99.90;;;;;;5035085;28;20605;-89
2023/09/20 02:46:18;;;;;;;1.33;1.00;;;16.10;99.90;;;;;;5034875;28;20213;-90
2023/09/20 02:48:43;;;;;;;4.88;1.42;;;16.10;99.90;;;;;;5034678;28;20222;-89
2023/09/20 02:51:09;;;;;;;6.50;1.60;;;16.00;99.90;;;;;;5035771;28;20206;-89
2023/09/20 02:53:35;;;;;;;5.38;1.55;;;16.00;99.90;;;;;;5034862;28;20182;-88
2023/09/20 02:56:04;;;;;;;3.97;1.50;;;16.00;99.90;;;;;;5035626;28;20228;-88
2023/09/20 02:58:29;;;;;;;3.45;1.23;;;16.00;99.90;;;;;;5034024;28;20551;-86
2023/09/20 03:00:55;;;;;;;4.28;1.30;;;16.00;99.90;;;;;;5035860;28;20170;-88
2023/09/20 03:03:23;;;;;;;4.47;1.50;;;16.00;99.90;;;;;;5035906;28;20240;-89
2023/09/20 03:05:48;;;;;;;5.32;1.30;;;15.90;99.90;;;;;;5034286;28;20185;-89
2023/09/20 03:08:14;;;;;;;4.18;1.30;;;15.90;99.90;;;;;;5034028;28;20174;-88
2023/09/20 03:10:43;;;;;;;3.28;1.38;;;15.90;99.90;;;;;;5034462;28;20228;-88
2023/09/20 03:13:16;;;;;;;2.33;1.17;;;15.80;99.90;;;;;;5034431;28;20182;-88
2023/09/20 03:15:43;;;;;;;2.90;1.30;;;15.80;99.90;;;;;;5034275;28;20182;-88
2023/09/20 03:18:11;;;;;;;4.05;1.35;;;15.80;99.90;;;;;;5034145;28;20656;-88
2023/09/20 03:20:38;;;;;;;3.30;1.40;;;15.90;99.90;;;;;;5034508;28;20229;-90
2023/09/20 03:23:05;;;;;;;5.72;1.65;;;15.90;99.90;;;;;;5033974;28;20186;-89
2023/09/20 03:25:37;;;;;;;6.43;2.00;;;15.90;99.90;;;;;;5034023;28;20506;-87
2023/09/20 03:28:04;;;;;;;3.67;1.25;;;15.90;99.90;;;;;;5033773;28;20177;-89
2023/09/20 03:30:34;;;;;;;5.53;1.50;;;15.90;99.90;;;;;;5034110;28;20175;-85
2023/09/20 03:33:00;;;;;;;3.90;1.75;;;15.90;99.90;;;;;;5035136;28;20171;-87
2023/09/20 03:35:27;;;;;;;3.95;1.60;;;16.00;99.90;;;;;;5037223;28;20213;-86
2023/09/20 03:37:54;;;;;;;6.35;1.50;;;16.00;99.90;;;;;;5054423;28;20208;-86
2023/09/20 03:40:21;;;;;;;4.10;1.10;;;16.00;99.90;;;;;;5054856;28;20181;-87
2023/09/20 03:42:48;;;;;;;4.57;1.42;;;16.00;99.90;;;;;;5053698;28;20181;-88
2023/09/20 03:45:17;;;;;;;4.05;1.27;;;16.00;99.90;;;;;;5053654;28;20308;-92
2023/09/20 03:47:53;;;;;;;2.83;1.55;;;15.90;99.90;;;;;;5053469;28;20189;-88
2023/09/20 03:50:19;;;;;;;3.05;1.40;;;16.00;99.90;;;;;;5053498;28;20368;-87
2023/09/20 03:52:46;;;;;;;4.53;1.40;;;16.00;99.90;;;;;;5053090;28;20178;-88
2023/09/20 03:55:12;;;;;;;3.67;1.80;;;15.90;99.90;;;;;;5053068;28;20222;-88
2023/09/20 03:57:38;;;;;;;3.40;1.30;;;15.90;99.90;;;;;;5053179;28;20209;-88
2023/09/20 04:00:07;;;;;;;5.60;1.80;;;15.90;99.90;;;;;;5054363;28;20162;-87
2023/09/20 04:02:34;;;;;;;4.78;1.58;;;15.90;99.90;;;;;;5053263;28;20178;-88
2023/09/20 04:05:05;;;;;;;4.43;1.55;;;15.90;99.90;;;;;;5053194;28;20173;-87
2023/09/20 04:07:32;;;;;;;4.20;1.27;;;15.90;99.90;;;;;;5033387;28;20181;-87
2023/09/20 04:09:57;;;;;;;6.63;1.40;;;16.00;99.90;;;;;;5032600;28;20229;-87
2023/09/20 04:12:23;;;;;;;4.90;1.83;;;15.90;99.90;;;;;;5033017;28;20182;-87
2023/09/20 04:14:53;;;;;;;3.75;1.38;;;15.90;99.90;;;;;;5033096;28;20229;-88
2023/09/20 04:17:18;;;;;;;3.53;1.35;;;16.00;99.90;;;;;;5032647;28;20285;-86
2023/09/20 04:19:44;;;;;;;4.88;1.42;;;15.90;99.90;;;;;;5033058;28;20293;-86
2023/09/20 04:22:10;;;;;;;5.88;1.67;;;16.00;99.90;;;;;;5032724;28;20174;-87
2023/09/20 04:24:39;;;;;;;4.28;1.50;;;15.90;99.90;;;;;;5033073;28;20181;-88
2023/09/20 04:27:05;;;;;;;5.50;1.52;;;15.90;99.90;;;;;;5032889;28;20175;-87
2023/09/20 04:29:31;;;;;;;5.32;1.45;;;16.00;99.90;;;;;;5032733;28;20200;-86
2023/09/20 04:31:57;;;;;;;5.32;1.75;;;15.90;99.90;;;;;;5032844;28;20513;-86
2023/09/20 04:34:23;;;;;;;5.38;1.80;;;15.90;99.90;;;;;;5032884;28;20271;-85
2023/09/20 04:36:51;;;;;;;4.45;1.45;;;15.90;99.90;;;;;;5032085;28;20273;-88
2023/09/20 04:39:17;;;;;;;6.00;1.50;;;15.90;99.90;;;;;;5032748;28;20232;-90
2023/09/20 04:41:43;;;;;;;5.65;1.77;;;15.90;99.90;;;;;;5032696;28;20247;-88
2023/09/20 04:44:09;;;;;;;5.63;1.70;;;15.90;99.90;;;;;;5032829;28;20182;-85
2023/09/20 04:46:35;;;;;;;3.60;1.77;;;15.90;99.90;;;;;;5033193;28;20658;-87
2023/09/20 04:49:09;;;;;;;4.70;2.00;;;15.90;99.90;;;;;;5032949;28;20179;-89
2023/09/20 04:51:36;;;;;;;6.07;1.67;;;15.90;99.90;;;;;;5034251;28;20544;-88
2023/09/20 04:54:02;;;;;;;6.13;2.15;;;15.90;99.90;;;;;;5032288;28;20264;-87
2023/09/20 04:56:28;;;;;;;6.95;1.75;;;15.90;99.90;;;;;;5032974;28;20237;-88
2023/09/20 04:58:57;;;;;;;5.20;1.83;;;15.80;99.90;;;;;;5032830;28;20206;-86
2023/09/20 05:01:26;;;;;;;6.57;1.88;;;15.90;99.90;;;;;;5034117;28;20221;-85
2023/09/20 05:03:51;;;;;;;6.50;1.90;;;15.90;99.90;;;;;;5033043;28;20179;-87
2023/09/20 05:06:20;;;;;;;7.25;1.92;;;15.90;99.90;;;;;;5017602;28;20202;-86
2023/09/20 05:08:46;;;;;;;6.88;1.70;;;15.80;99.90;;;;;;5012275;28;20233;-86
2023/09/20 05:11:13;;;;;;;2.92;1.63;;;15.80;99.90;;;;;;5014459;28;20251;-85
2023/09/20 05:13:41;;;;;;;4.80;1.73;;;15.80;99.90;;;;;;5014248;28;20191;-87
2023/09/20 05:16:07;;;;;;;4.28;1.83;;;15.80;99.90;;;;;;5013063;28;20229;-86
2023/09/20 05:18:34;;;;;;;3.60;1.35;;;15.80;99.90;;;;;;5014000;28;20293;-87
2023/09/20 05:20:59;;;;;;;3.42;1.55;;;15.70;99.90;;;;;;5014053;28;20178;-88
2023/09/20 05:23:25;;;;;;;8.07;1.70;;;15.80;99.90;;;;;;5016738;28;20538;-87
2023/09/20 05:25:52;;;;;;;8.75;1.75;;;15.80;99.90;;;;;;5016829;28;20187;-86
2023/09/20 05:28:18;;;;;;;6.55;1.73;;;15.80;99.90;;;;;;5016463;28;20590;-87
2023/09/20 05:30:44;;;;;;;4.55;1.75;;;15.80;99.90;;;;;;5024232;28;20179;-86
2023/09/20 05:33:12;;;;;;;4.60;1.65;;;15.80;99.90;;;;;;5032819;28;20266;-87
2023/09/20 05:35:41;;;;;;;3.72;1.40;;;15.80;99.90;;;;;;5020393;28;20170;-87
2023/09/20 05:38:07;;;;;;;4.07;1.60;;;15.80;99.90;;;;;;5036792;28;20281;-86
2023/09/20 05:40:34;;;;;;;5.45;1.38;;;15.90;99.90;;;;;;5036036;28;20178;-86
2023/09/20 05:43:03;;;;;;;4.32;1.63;;;15.90;99.90;;;;;;5054420;28;20229;-86
2023/09/20 05:45:30;;;;;;;6.28;1.95;;;15.80;99.90;;;;;;5056174;28;20189;-87
2023/09/20 05:48:03;;;;;;;5.85;1.90;;;15.80;99.90;;;;;;5055968;28;20184;-88
2023/09/20 05:50:35;;;;;;;5.32;1.52;;;15.80;99.90;;;;;;5037752;28;20201;-88
2023/09/20 05:53:03;;;;;;;5.05;1.67;;;15.80;99.90;;;;;;5035925;28;20201;-86
2023/09/20 05:55:33;;;;;;;7.03;1.77;;;15.80;99.90;;;;;;5035373;28;20222;-87
2023/09/20 05:58:00;;;;;;;5.18;1.80;;;15.80;99.90;;;;;;5035131;28;20237;-87
2023/09/20 06:00:26;;;;;;;6.18;1.95;;;15.80;99.90;;;;;;5035637;28;20228;-84
2023/09/20 06:02:53;;;;;;;3.58;1.70;;;15.80;99.90;;;;;;5035931;28;20178;-87
2023/09/20 06:05:19;;;;;;;5.00;1.73;;;15.80;99.90;;;;;;5035687;28;20664;-87
2023/09/20 06:07:45;;;;;;;7.80;1.73;;;15.80;99.90;;;;;;5035334;28;20216;-86
2023/09/20 06:10:13;;;;;;;7.10;1.88;;;15.90;99.90;;;;;;5035428;28;20186;-88
2023/09/20 06:12:38;;;;;;;5.13;1.85;;;15.90;99.90;;;;;;5035494;28;20688;-85
2023/09/20 06:15:07;;;;;;;7.13;2.13;;;16.00;99.90;;;;;;5036657;28;20183;-86
2023/09/20 06:17:34;;;;;;;3.95;1.60;;;16.10;99.90;;;;;;5036125;28;20175;-86
2023/09/20 06:20:12;;;;;;;3.17;1.60;;;16.20;99.90;;;;;;5035347;28;20230;-86
2023/09/20 06:22:38;;;;;;;6.82;1.83;;;16.30;99.90;;;;;;5035147;28;20179;-86
2023/09/20 06:25:06;;;;;;;5.68;1.98;;;16.40;99.90;;;;;;5036454;28;20574;-86
2023/09/20 06:27:32;;;;;;;4.45;1.83;;;16.50;99.90;;;;;;5036141;28;20162;-86
2023/09/20 06:29:59;;;;;;;5.18;1.80;;;16.60;99.90;;;;;;5035212;28;20236;-85
2023/09/20 06:32:25;;;;;;;9.25;2.30;;;16.70;99.90;;;;;;5035060;28;20179;-89
2023/09/20 06:34:51;;;;;;;6.20;2.03;;;16.70;99.90;;;;;;5034254;28;20652;-85
2023/09/20 06:37:17;;;;;;;3.15;1.42;;;16.70;99.90;;;;;;5034878;28;20232;-86
2023/09/20 06:39:43;;;;;;;4.78;2.05;;;16.80;99.90;;;;;;5035133;28;20210;-88
2023/09/20 06:42:10;;;;;;;5.75;1.83;;;16.90;99.90;;;;;;5035372;28;20232;-86
2023/09/20 06:44:38;;;;;;;4.82;1.58;;;16.90;99.90;;;;;;5034923;28;20636;-87
2023/09/20 06:47:06;;;;;;;3.97;1.50;;;16.90;99.90;;;;;;5036027;28;20175;-88
2023/09/20 06:49:32;;;;;;;5.25;1.70;;;16.90;99.90;;;;;;5034282;28;20638;-86
2023/09/20 06:52:03;;;;;;;8.05;1.80;;;16.90;99.90;;;;;;5034758;28;20212;-86
2023/09/20 06:54:35;;;;;;;6.32;1.50;;;16.90;99.90;;;;;;5035989;28;20213;-87
2023/09/20 06:57:05;;;;;;;6.25;1.73;;;16.90;99.90;;;;;;5034608;28;20275;-88
2023/09/20 06:59:37;;;;;;;7.05;1.80;;;17.00;99.90;;;;;;5034662;28;20249;-85
2023/09/20 07:02:03;;;;;;;8.50;1.77;;;17.00;99.90;;;;;;5034437;28;20179;-89
2023/09/20 07:04:31;;;;;;;3.25;1.45;;;17.10;99.90;;;;;;5035420;28;20186;-87
2023/09/20 07:07:03;;;;;;;5.28;1.50;;;17.10;99.90;;;;;;5034402;28;20206;-86
2023/09/20 07:09:31;;;;;;;5.13;1.98;;;17.20;99.90;;;;;;5034363;28;20261;-87
2023/09/20 07:12:01;;;;;;;7.45;2.05;;;17.20;99.90;;;;;;5034712;28;20171;-87
2023/09/20 07:14:31;;;;;;;6.70;1.80;;;17.30;99.90;;;;;;5034352;28;20209;-86
2023/09/20 07:16:57;;;;;;;3.38;1.40;;;17.40;99.90;;;;;;5035338;28;20185;-87
2023/09/20 07:19:26;;;;;;;6.32;1.65;;;17.40;99.90;;;;;;5033965;28;20214;-89
2023/09/20 07:21:52;;;;;;;10.25;2.05;;;17.50;99.90;;;;;;5029994;28;20214;-86
2023/09/20 07:24:24;;;;;;;3.97;1.40;;;17.60;99.90;;;;;;5025881;28;20179;-90
2023/09/20 07:26:54;;;;;;;4.90;1.60;;;17.70;99.90;;;;;;5034069;28;20187;-88
2023/09/20 07:29:21;;;;;;;6.53;1.67;;;17.70;99.90;;;;;;5035457;28;20167;-86
2023/09/20 07:31:48;;;;;;;8.82;1.90;;;17.80;99.90;;;;;;5034024;28;20200;-87
2023/09/20 07:34:15;;;;;;;6.30;1.58;;;17.80;99.90;;;;;;5034965;28;20197;-88
2023/09/20 07:36:43;;;;;;;5.15;1.60;;;17.90;99.90;;;;;;5033811;28;20179;-86
2023/09/20 07:39:13;;;;;;;5.05;1.75;;;17.90;99.90;;;;;;5033836;28;20218;-88
2023/09/20 07:41:46;;;;;;;5.32;1.67;;;18.00;99.90;;;;;;5034016;28;20520;-88
2023/09/20 07:44:15;;;;;;;3.88;1.90;;;18.00;99.90;;;;;;5033754;28;20673;-87
2023/09/20 07:46:46;;;;;;;9.00;1.60;;;18.00;99.90;;;;;;5033418;28;20213;-87
2023/09/20 07:49:15;;;;;;;6.15;1.63;;;18.10;99.90;;;;;;5033715;28;20183;-88
2023/09/20 07:51:45;;;;;;;5.63;1.75;;;18.20;99.90;;;;;;5034082;28;20212;-86
2023/09/20 07:54:10;;;;;;;10.93;1.77;;;18.30;99.90;;;;;;5033567;28;20184;-85
2023/09/20 07:56:37;;;;;;;4.25;1.65;;;18.40;99.90;;;;;;5034487;28;20550;-90
2023/09/20 07:59:06;;;;;;;6.47;1.48;;;18.40;99.90;;;;;;5033384;28;20245;-86
2023/09/20 08:01:32;;;;;;;3.30;1.50;;;18.50;99.90;;;;;;5033485;28;20167;-86
2023/09/20 08:03:59;;;;;;;3.25;1.80;;;18.60;99.90;;;;;;5034490;28;20236;-88
2023/09/20 08:06:33;;;;;;;4.85;1.60;;;18.60;99.90;;;;;;5033439;28;20178;-87
2023/09/20 08:09:00;;;;;;;6.47;1.40;;;18.60;99.90;;;;;;5033301;28;20229;-88
2023/09/20 08:11:28;;;;;;;6.55;1.85;;;18.60;99.90;;;;;;5034585;28;20167;-86
2023/09/20 08:13:57;;;;;;;4.57;1.65;;;18.60;99.90;;;;;;5033239;28;20640;-85
2023/09/20 08:16:24;;;;;;;3.97;1.42;;;18.70;99.90;;;;;;5034482;28;20179;-86
2023/09/20 08:21:34;;;;;;;5.05;1.90;;;18.90;99.90;;;;;;5034400;28;20242;-88
2023/09/20 09:00:24;;;;;;;7.75;1.80;;;20.00;99.90;;;;;;5038479;28;20209;-85
2023/09/20 09:02:57;;;;;;;6.35;1.70;;;20.10;99.90;;;;;;5038104;28;20563;-89
2023/09/20 09:05:26;;;;;;;3.33;1.50;;;20.10;99.90;;;;;;5053821;28;20228;-90
2023/09/20 09:07:51;;;;;;;6.43;1.63;;;20.10;99.90;;;;;;5036916;28;20217;-87
2023/09/20 09:10:18;;;;;;;2.90;1.60;;;20.10;99.90;;;;;;5037053;28;20224;-87
2023/09/20 09:12:44;;;;;;;3.25;1.60;;;20.20;99.90;;;;;;5036567;28;20270;-87
2023/09/20 09:15:16;;;;;;;2.50;1.20;;;20.20;99.90;;;;;;5036611;28;20218;-86
2023/09/20 09:17:44;;;;;;;3.30;1.60;;;20.10;99.90;;;;;;5036525;28;20175;-88
2023/09/20 09:20:14;;;;;;;3.20;1.25;;;20.10;99.90;;;;;;5036850;28;20191;-89
2023/09/20 09:22:44;;;;;;;4.88;1.60;;;20.10;99.90;;;;;;5125668;22;20238;-90
2023/09/20 09:25:14;;;;;;;4.47;1.42;;;20.20;99.90;;;;;;5036434;28;20178;-86
2023/09/20 09:27:42;;;;;;;2.78;1.33;;;20.30;99.90;;;;;;5035733;28;20171;-89
2023/09/20 09:30:12;;;;;;;3.97;1.42;;;20.30;99.90;;;;;;5052931;28;20174;-87
2023/09/20 09:32:39;;;;;;;6.32;1.50;;;20.40;99.90;;;;;;5037504;28;20171;-88
2023/09/20 09:35:06;;;;;;;4.32;1.70;;;20.50;99.90;;;;;;5038013;28;20186;-92
2023/09/20 09:37:33;;;;;;;3.78;1.30;;;20.50;99.90;;;;;;5053219;28;20194;-89
2023/09/20 09:40:00;;;;;;;3.88;1.60;;;20.50;99.90;;;;;;5053461;28;20224;-90
2023/09/20 09:42:28;;;;;;;4.40;1.55;;;20.60;99.90;;;;;;5053148;28;20652;-87
2023/09/20 09:44:58;;;;;;;3.45;1.48;;;20.60;99.90;;;;;;5052767;28;20537;-91
2023/09/20 09:47:25;;;;;;;2.80;1.30;;;20.60;99.90;;;;;;5037474;28;20159;-89
2023/09/20 09:49:53;;;;;;;6.50;1.40;;;20.70;99.90;;;;;;5037587;28;20598;-87
2023/09/20 09:52:24;;;;;;;2.53;1.33;;;20.70;99.90;;;;;;5037006;28;20179;-87
2023/09/20 09:54:52;;;;;;;5.90;1.48;;;20.80;99.90;;;;;;5035938;28;20601;-86
2023/09/20 09:57:18;;;;;;;2.97;1.45;;;20.90;99.90;;;;;;5036021;28;20182;-87
2023/09/20 09:59:49;;;;;;;4.70;1.80;;;20.90;99.90;;;;;;5037154;28;20528;-89
2023/09/20 10:02:24;;;;;;;3.88;1.50;;;21.10;99.90;;;;;;5035949;28;20194;-87
2023/09/20 10:05:00;;;;;;;5.30;1.63;;;21.20;99.90;;;;;;5036016;28;20174;-85
2023/09/20 10:08:01;;;;;;;3.33;1.48;;;21.10;99.90;;;;;;5035299;28;20174;-89
2023/09/20 10:10:27;;;;;;;3.25;1.20;;;21.10;99.90;;;;;;5036045;28;20225;-88
2023/09/20 10:12:54;;;;;;;3.85;1.70;;;21.00;99.90;;;;;;5035996;28;20517;-88
2023/09/20 10:15:21;;;;;;;3.25;1.30;;;20.90;99.90;;;;;;5037149;28;20159;-87
2023/09/20 10:17:55;;;;;;;4.38;1.45;;;20.80;99.90;;;;;;5035694;28;20178;-86
2023/09/20 10:20:22;;;;;;;2.17;1.50;;;20.90;99.90;;;;;;5035576;28;20225;-87
2023/09/20 10:22:49;;;;;;;6.38;1.40;;;21.00;99.90;;;;;;5032487;28;20237;-89
2023/09/20 10:25:35;;;;;;;3.65;1.42;;;21.10;99.90;;;;;;5015959;28;20176;-85
2023/09/20 10:28:08;;;;;;;2.75;1.30;;;21.20;99.90;;;;;;5015697;28;20632;-90
2023/09/20 10:30:56;;;;;;;3.33;1.48;;;21.30;99.90;;;;;;5015855;28;20241;-90
2023/09/20 10:34:01;;;;;;;4.30;1.40;;;21.30;99.90;;;;;;5015558;28;20360;-86
2023/09/20 10:36:30;;;;;;;4.70;1.33;;;21.40;99.90;;;;;;4956155;29;20189;-85
2023/09/20 10:39:18;;;;;;;2.35;1.00;;;21.40;99.90;;;;;;4940006;29;20219;-87
2023/09/20 10:41:48;;;;;;;3.67;1.40;;;21.40;99.90;;;;;;4987900;28;20191;-89
2023/09/20 10:44:36;;;;;;;4.43;1.20;;;21.40;99.90;;;;;;5015993;28;20179;-90
2023/09/20 10:47:20;;;;;;;2.50;1.13;;;21.40;99.90;;;;;;5015647;28;20183;-89
2023/09/20 10:49:55;;;;;;;3.25;1.10;;;21.50;99.90;;;;;;5016546;28;20167;-86
2023/09/20 10:52:33;;;;;;;3.67;1.30;;;21.60;99.90;;;;;;5016584;28;20505;-88
2023/09/20 10:55:22;;;;;;;5.07;1.23;;;21.80;99.90;;;;;;5015128;28;20179;-89
2023/09/20 10:57:49;;;;;;;4.97;1.20;;;21.90;99.90;;;;;;5015624;28;20537;-87
2023/09/20 11:00:24;;;;;;;2.58;1.23;;;22.00;99.90;;;;;;5014916;28;20179;-85
2023/09/20 11:02:52;;;;;;;4.85;1.27;;;22.10;99.90;;;;;;5016003;28;20163;-83
2023/09/20 11:05:19;;;;;;;2.40;1.40;;;22.10;99.90;;;;;;5014849;28;20183;-84
2023/09/20 11:07:46;;;;;;;3.35;1.20;;;22.10;99.90;;;;;;5014294;28;20183;-84
2023/09/20 11:10:17;;;;;;;2.55;1.05;;;22.10;99.90;;;;;;5015793;28;20183;-86
2023/09/20 11:12:43;;;;;;;2.25;1.30;;;22.10;99.90;;;;;;5014646;28;20198;-88
2023/09/20 11:15:10;;;;;;;3.30;0.98;;;22.20;99.90;;;;;;5014961;28;20175;-87
2023/09/20 11:17:36;;;;;;;2.50;0.93;;;22.20;99.90;;;;;;5014613;28;20207;-86
2023/09/20 11:20:04;;;;;;;1.55;0.90;;;22.30;99.90;;;;;;5016096;28;20665;-88
2023/09/20 11:22:35;;;;;;;2.65;1.00;;;22.40;99.90;;;;;;5015846;28;20219;-89
2023/09/20 11:25:04;;;;;;;2.88;0.88;;;22.40;99.90;;;;;;5014429;28;20274;-87
2023/09/20 11:27:34;;;;;;;2.55;1.10;;;22.50;99.90;;;;;;5015602;28;20171;-87
2023/09/20 11:30:08;;;;;;;2.30;1.02;;;22.40;99.90;;;;;;5014571;28;20567;-88
2023/09/20 11:32:37;;;;;;;2.50;1.10;;;22.20;99.90;;;;;;5015366;28;20250;-83
2023/09/20 11:35:03;;;;;;;3.33;1.20;;;22.10;99.90;;;;;;5015343;28;20242;-84
2023/09/20 11:37:30;;;;;;;4.97;1.00;;;22.00;99.90;;;;;;5015530;28;20171;-85
2023/09/20 11:39:56;;;;;;;4.00;1.20;;;21.90;99.90;;;;;;5015098;28;20595;-85
2023/09/20 11:42:32;;;;;;;4.80;1.25;;;22.00;99.90;;;;;;5013952;28;20179;-85
2023/09/20 11:45:03;;;;;;;6.20;1.40;;;22.20;99.90;;;;;;5015950;28;20194;-92
2023/09/20 11:47:34;;;;;;;3.70;1.10;;;22.30;99.90;;;;;;5015317;28;20238;-84
2023/09/20 11:50:00;;;;;;;2.55;1.17;;;22.40;99.90;;;;;;5014009;28;20178;-84
2023/09/20 11:52:27;;;;;;;1.98;1.13;;;22.50;99.90;;;;;;5013785;28;20525;-84
2023/09/20 11:55:03;;;;;;;3.10;1.15;;;22.50;99.90;;;;;;5054321;28;20173;-85
2023/09/20 11:57:29;;;;;;;2.95;1.10;;;22.50;99.90;;;;;;5053658;28;20174;-84
2023/09/20 11:59:55;;;;;;;2.60;0.82;;;22.40;99.90;;;;;;5053341;28;20214;-84
2023/09/20 12:02:22;;;;;;;3.25;1.40;;;22.40;99.90;;;;;;5053441;28;20478;-86
2023/09/20 12:04:51;;;;;;;4.30;1.52;;;22.40;99.90;;;;;;5053418;28;20177;-84
2023/09/20 12:07:17;;;;;;;3.13;1.15;;;22.50;99.90;;;;;;5054341;28;20604;-84
2023/09/20 12:09:43;;;;;;;5.90;1.30;;;22.40;99.90;;;;;;5054337;28;20178;-84
2023/09/20 12:12:10;;;;;;;1.73;0.93;;;22.40;99.90;;;;;;5053171;28;20516;-84
2023/09/20 12:14:38;;;;;;;2.50;1.27;;;22.40;99.90;;;;;;5052975;28;20710;-82
2023/09/20 12:17:06;;;;;;;5.22;1.27;;;22.40;99.90;;;;;;5052848;28;20187;-84
2023/09/20 12:19:32;;;;;;;4.03;1.30;;;22.50;99.90;;;;;;5052833;28;20308;-84
2023/09/20 12:22:00;;;;;;;3.65;1.10;;;22.50;99.90;;;;;;5053206;28;20272;-86
2023/09/20 12:24:26;;;;;;;3.22;1.10;;;22.50;99.90;;;;;;5037606;28;20276;-84
2023/09/20 12:26:53;;;;;;;6.53;1.10;;;22.80;99.90;;;;;;5032500;28;20265;-88
2023/09/20 12:29:18;;;;;;;2.88;1.20;;;23.00;99.90;;;;;;5032835;28;20184;-81
2023/09/20 12:31:47;;;;;;;2.20;1.00;;;23.10;99.90;;;;;;5033858;28;20174;-84
2023/09/20 12:34:13;;;;;;;4.07;1.10;;;23.20;99.90;;;;;;5031845;28;20584;-81
2023/09/20 12:36:39;;;;;;;4.25;1.08;;;23.40;99.90;;;;;;5032791;28;20174;-83
2023/09/20 12:39:08;;;;;;;2.60;1.05;;;23.60;99.90;;;;;;5033035;28;20202;-82
2023/09/20 12:41:37;;;;;;;5.03;1.48;;;23.80;99.90;;;;;;5032770;28;20185;-83
2023/09/20 12:44:03;;;;;;;4.43;1.08;;;24.00;99.90;;;;;;5031813;28;20186;-84
2023/09/20 12:46:33;;;;;;;1.88;1.00;;;24.20;99.90;;;;;;5033495;28;20503;-82
2023/09/20 12:48:58;;;;;;;5.07;1.33;;;24.30;99.90;;;;;;5033820;28;20191;-83
2023/09/20 12:51:25;;;;;;;3.50;1.17;;;24.50;99.90;;;;;;5031530;28;20230;-82
2023/09/20 12:53:52;;;;;;;4.50;1.30;;;24.40;99.90;;;;;;5033725;28;20174;-83
2023/09/20 12:56:18;;;;;;;3.25;1.10;;;24.20;99.90;;;;;;5031274;28;20213;-83
2023/09/20 12:58:44;;;;;;;5.53;1.30;;;24.20;99.90;;;;;;5033370;28;20594;-84
2023/09/20 13:01:10;;;;;;;3.05;0.90;;;24.20;99.90;;;;;;5031574;28;20181;-82
2023/09/20 13:03:43;;;;;;;3.55;1.13;;;24.20;99.90;;;;;;5032061;28;20183;-84
2023/09/20 13:06:09;;;;;;;2.95;1.00;;;24.30;99.90;;;;;;5033831;28;20242;-82
2023/09/20 13:08:37;;;;;;;1.48;0.85;;;24.40;99.90;;;;;;5032234;28;20182;-83
2023/09/20 13:11:05;;;;;;;4.63;1.00;;;24.30;99.90;;;;;;5032297;28;20210;-81
2023/09/20 13:13:32;;;;;;;3.85;0.98;;;24.30;99.90;;;;;;5031488;28;20613;-82
2023/09/20 13:15:58;;;;;;;2.60;0.90;;;24.20;99.90;;;;;;5033401;28;20246;-82
2023/09/20 13:18:23;;;;;;;2.42;1.20;;;24.30;99.90;;;;;;5033384;28;20289;-82
2023/09/20 13:20:49;;;;;;;3.10;1.08;;;24.30;99.90;;;;;;5032487;28;20619;-83
2023/09/20 13:23:16;;;;;;;3.22;0.93;;;24.40;99.90;;;;;;5031940;28;20704;-85
2023/09/20 13:25:42;;;;;;;3.08;1.17;;;24.30;99.90;;;;;;5031042;28;20190;-81
2023/09/20 13:28:09;;;;;;;2.33;0.88;;;24.20;99.90;;;;;;5033075;28;20261;-83
2023/09/20 13:30:37;;;;;;;2.97;0.98;;;24.20;99.90;;;;;;5032177;28;20186;-82
2023/09/20 13:33:03;;;;;;;2.20;0.98;;;24.40;99.90;;;;;;5033397;28;20181;-81